Biwabik, Minnesota
Current Conditions -  °F | °C
As of 2:11 AM on Tuesday 21 Oct 2014 (Local Time) from KEVM Reporting Station
Overcast Overcast  
Wind Chill: 43°   Ceiling: 2600
Heat Index: 43°   Visibility: 10mi
Dew Point: 34°   Wind: 3mph
Humidity: 70%   Direction: 60°ENE
Pressure: 30.15"   Gusts: NA
Location:  47.53°N, 92.34°W
Report Text: KEVM 210711Z AUTO 06003KT 10SM OVC026 06/01 A3015 RMK AO2
Loading
Personal Weather Stations






























Interactive Weather Map
Tropical Storm Tracking
New forecast layout! Learn more

10-Day Weather Forecast

Advertisements
Track Severe Weather on mobile